Time;durP1;ratioP1;P1;durP2;ratioP2;P2;SDS_P1;SDS_P2;PMS_P1;PMS_P2;Temp;Humidity;BMP_temperature;BMP_pressure;BME280_temperature;BME280_humidity;BME280_pressure;Samples;Min_cycle;Max_cycle;Signal;HPM_P1;HPM_P2
2023/06/09 00:41:38;;;;;;;8.82;7.93;;;14.20;99.90;;;;;;5711504;23;20804;-88
2023/06/09 00:44:04;;;;;;;9.40;8.60;;;14.20;99.90;;;;;;4897339;29;20186;-88
2023/06/09 00:46:30;;;;;;;9.32;8.40;;;14.20;99.90;;;;;;4895869;29;20215;-88
2023/06/09 00:48:57;;;;;;;8.57;7.80;;;14.40;99.90;;;;;;4896645;29;20671;-88
2023/06/09 00:51:22;;;;;;;8.57;7.68;;;14.10;99.90;;;;;;4896018;29;20489;-88
2023/06/09 00:53:48;;;;;;;8.00;7.30;;;14.30;99.90;;;;;;4896279;29;20666;-88
2023/06/09 00:56:15;;;;;;;8.37;7.47;;;14.00;99.90;;;;;;4921120;23;20289;-86
2023/06/09 00:58:40;;;;;;;8.90;8.20;;;14.10;99.90;;;;;;4927127;29;20450;-86
2023/06/09 01:01:06;;;;;;;8.97;8.17;;;14.30;99.90;;;;;;4925071;29;20193;-86
2023/06/09 01:03:32;;;;;;;8.60;7.80;;;14.00;99.90;;;;;;4912844;29;20211;-86
2023/06/09 01:06:12;;;;;;;8.73;7.78;;;14.10;99.90;;;;;;4921291;29;20234;-86
2023/06/09 01:08:44;;;;;;;8.68;7.80;;;13.90;99.90;;;;;;4896610;29;20186;-86
2023/06/09 01:11:30;;;;;;;12.77;8.40;;;14.10;99.90;;;;;;4895106;29;20660;-86
2023/06/09 01:14:10;;;;;;;8.30;7.55;;;13.50;99.90;;;;;;4893777;29;20198;-85
2023/06/09 01:16:47;;;;;;;9.13;8.25;;;14.40;99.90;;;;;;4906606;29;20199;-85
2023/06/09 01:19:27;;;;;;;8.63;7.90;;;14.00;99.90;;;;;;4925390;29;20930;-85
2023/06/09 01:21:57;;;;;;;8.85;7.75;;;13.90;99.90;;;;;;4897606;29;20203;-85
2023/06/09 01:24:32;;;;;;;8.65;7.78;;;14.20;99.90;;;;;;4895836;29;20259;-85
2023/06/09 01:27:01;;;;;;;8.70;7.97;;;14.00;99.90;;;;;;4926945;29;20218;-85
2023/06/09 01:29:28;;;;;;;8.35;7.65;;;13.80;99.90;;;;;;4896939;29;20202;-85
2023/06/09 01:31:54;;;;;;;8.95;8.15;;;14.20;99.90;;;;;;4897452;29;20211;-85
2023/06/09 01:34:20;;;;;;;9.30;7.90;;;13.70;99.90;;;;;;4904992;29;20198;-85
2023/06/09 01:36:47;;;;;;;9.30;8.43;;;14.20;99.90;;;;;;4905729;29;20191;-85
2023/06/09 01:39:13;;;;;;;8.57;7.78;;;13.90;99.90;;;;;;4894482;29;20230;-85
2023/06/09 01:41:39;;;;;;;9.07;8.27;;;13.70;99.90;;;;;;4893122;29;20215;-85
2023/06/09 01:44:05;;;;;;;9.60;8.60;;;13.70;99.90;;;;;;4907613;29;20295;-85
2023/06/09 01:46:31;;;;;;;9.40;8.50;;;13.70;99.90;;;;;;4894897;29;20674;-85
2023/06/09 01:49:10;;;;;;;8.80;8.00;;;13.70;99.90;;;;;;4891961;29;20178;-86
2023/06/09 01:51:52;;;;;;;9.13;8.30;;;13.60;99.90;;;;;;4910800;29;20202;-86
2023/06/09 01:54:43;;;;;;;9.88;9.07;;;13.60;99.90;;;;;;4892044;29;20193;-85
2023/06/09 01:57:18;;;;;;;9.10;8.30;;;13.20;99.90;;;;;;4890721;29;20207;-86
2023/06/09 01:59:53;;;;;;;9.23;8.43;;;13.80;99.90;;;;;;4920906;29;20190;-85
2023/06/09 02:02:20;;;;;;;9.10;8.30;;;13.50;99.90;;;;;;4893971;29;20214;-85
2023/06/09 02:04:49;;;;;;;8.90;8.00;;;13.50;99.90;;;;;;4888256;29;20187;-85
2023/06/09 02:07:16;;;;;;;8.75;7.90;;;13.30;99.90;;;;;;4890264;29;20226;-85
2023/06/09 02:09:44;;;;;;;8.73;7.93;;;13.50;99.90;;;;;;4924975;29;20191;-85
2023/06/09 02:12:09;;;;;;;9.27;8.48;;;13.60;99.90;;;;;;4892841;29;20206;-86
2023/06/09 02:14:35;;;;;;;9.20;8.13;;;13.50;99.90;;;;;;4892510;29;20189;-85
2023/06/09 02:17:02;;;;;;;8.30;7.60;;;13.60;99.90;;;;;;4922270;29;20187;-86
2023/06/09 02:19:28;;;;;;;8.30;7.60;;;13.70;99.90;;;;;;4914685;29;20171;-86
2023/06/09 02:21:54;;;;;;;9.02;8.25;;;14.20;99.90;;;;;;4918874;29;20221;-86
2023/06/09 02:24:20;;;;;;;7.77;7.07;;;13.10;99.90;;;;;;4929986;29;20231;-86
2023/06/09 02:26:49;;;;;;;8.27;7.57;;;13.70;99.90;;;;;;4893138;29;20279;-86
2023/06/09 02:29:15;;;;;;;8.55;7.75;;;13.60;99.90;;;;;;4907414;29;20234;-86
2023/06/09 02:31:40;;;;;;;9.20;8.40;;;13.20;99.90;;;;;;4922342;29;20244;-86
2023/06/09 02:34:06;;;;;;;9.30;8.50;;;13.10;99.90;;;;;;4887990;29;20190;-86
2023/06/09 02:36:31;;;;;;;8.80;8.03;;;13.60;99.90;;;;;;4908466;29;20331;-86
2023/06/09 02:38:57;;;;;;;8.90;8.00;;;13.30;99.90;;;;;;4892842;29;20611;-86
2023/06/09 02:41:23;;;;;;;9.48;8.63;;;13.20;99.90;;;;;;4892907;29;20195;-86
2023/06/09 02:43:48;;;;;;;9.30;8.40;;;13.50;99.90;;;;;;4888203;29;20196;-86
2023/06/09 02:46:17;;;;;;;9.80;9.00;;;13.70;99.90;;;;;;4892894;29;20226;-86
2023/06/09 02:48:42;;;;;;;8.85;8.05;;;13.40;99.90;;;;;;4893155;29;20183;-86
2023/06/09 02:51:08;;;;;;;10.93;9.80;;;13.30;99.90;;;;;;4889841;29;20553;-86
2023/06/09 02:53:33;;;;;;;8.03;7.33;;;13.20;99.90;;;;;;4893485;29;20290;-86
2023/06/09 02:55:59;;;;;;;9.93;8.40;;;13.10;99.90;;;;;;4896371;29;20214;-86
2023/06/09 02:58:24;;;;;;;9.13;8.30;;;13.60;99.90;;;;;;4916894;29;20672;-86
2023/06/09 03:00:50;;;;;;;8.90;8.10;;;13.50;99.90;;;;;;4892072;29;20676;-86
2023/06/09 03:03:17;;;;;;;8.80;8.00;;;13.20;99.90;;;;;;4892351;29;20219;-87
2023/06/09 03:05:44;;;;;;;8.57;7.82;;;13.00;99.90;;;;;;4892191;29;20225;-87
2023/06/09 03:08:09;;;;;;;8.90;8.10;;;13.10;99.90;;;;;;4895801;29;20660;-87
2023/06/09 03:10:35;;;;;;;9.83;9.00;;;13.40;99.90;;;;;;4893871;29;20278;-87
2023/06/09 03:13:01;;;;;;;11.37;10.03;;;13.40;99.90;;;;;;4916282;29;20218;-87
2023/06/09 03:15:26;;;;;;;9.67;8.67;;;13.10;99.90;;;;;;4893667;29;20286;-86
2023/06/09 03:17:52;;;;;;;8.43;7.73;;;13.40;99.90;;;;;;4895762;29;20281;-86
2023/06/09 03:20:19;;;;;;;10.03;9.13;;;13.60;99.90;;;;;;4894694;29;20578;-86
2023/06/09 03:22:45;;;;;;;9.30;8.40;;;13.10;99.90;;;;;;4919507;29;20207;-86
2023/06/09 03:25:12;;;;;;;9.10;8.25;;;13.10;99.90;;;;;;4895549;29;20201;-86
2023/06/09 03:27:37;;;;;;;9.20;8.43;;;13.20;99.90;;;;;;4909745;29;20198;-86
2023/06/09 03:30:05;;;;;;;9.07;8.27;;;13.50;99.90;;;;;;4894458;29;20182;-86
2023/06/09 03:32:31;;;;;;;9.10;8.30;;;13.20;99.90;;;;;;4895878;29;20218;-86
2023/06/09 03:34:56;;;;;;;9.00;8.17;;;13.00;99.90;;;;;;4895106;29;20187;-86
2023/06/09 03:37:22;;;;;;;9.57;8.70;;;13.50;99.90;;;;;;4892754;29;20191;-86
2023/06/09 03:39:47;;;;;;;9.90;9.00;;;13.50;99.90;;;;;;4897231;29;20191;-86
2023/06/09 03:42:13;;;;;;;10.10;9.13;;;13.20;99.90;;;;;;4889454;29;20215;-86
2023/06/09 03:44:38;;;;;;;9.37;8.50;;;12.90;99.90;;;;;;4893738;29;20195;-86
2023/06/09 03:47:04;;;;;;;9.30;8.30;;;13.50;99.90;;;;;;4896751;29;20207;-86
2023/06/09 03:49:30;;;;;;;9.47;8.50;;;13.10;99.90;;;;;;4890760;29;20194;-86
2023/06/09 03:51:55;;;;;;;9.50;8.70;;;13.20;99.90;;;;;;4894991;29;20474;-86
2023/06/09 03:54:22;;;;;;;10.17;9.17;;;13.20;99.90;;;;;;4923151;29;20226;-86
2023/06/09 03:56:47;;;;;;;10.18;9.15;;;13.50;99.90;;;;;;4895247;29;20656;-86
2023/06/09 03:59:13;;;;;;;9.70;8.80;;;13.10;99.90;;;;;;4892719;29;20187;-86
2023/06/09 04:01:40;;;;;;;10.43;9.40;;;13.30;99.90;;;;;;4925567;29;20306;-86
2023/06/09 04:04:06;;;;;;;9.45;8.65;;;13.40;99.90;;;;;;4893140;29;20736;-86
2023/06/09 04:06:31;;;;;;;10.73;9.70;;;13.10;99.90;;;;;;4922452;29;20267;-86
2023/06/09 04:08:57;;;;;;;9.80;8.90;;;13.00;99.90;;;;;;4893684;29;20207;-86
2023/06/09 04:11:23;;;;;;;9.63;8.63;;;13.10;99.90;;;;;;4894674;29;20187;-86
2023/06/09 04:13:48;;;;;;;9.23;8.43;;;13.10;99.90;;;;;;4894363;29;20198;-86
2023/06/09 04:16:17;;;;;;;9.27;8.47;;;13.70;99.90;;;;;;4909357;29;20191;-86
2023/06/09 04:18:43;;;;;;;9.32;8.43;;;13.30;99.90;;;;;;4924419;29;20282;-86
2023/06/09 04:21:09;;;;;;;9.57;8.70;;;13.30;99.90;;;;;;4934913;29;20753;-86
2023/06/09 04:23:34;;;;;;;9.33;8.53;;;13.50;99.90;;;;;;4926917;29;20211;-86
2023/06/09 04:26:00;;;;;;;9.43;8.63;;;13.70;99.90;;;;;;4894773;29;20305;-86
2023/06/09 04:28:27;;;;;;;9.40;8.60;;;13.60;99.90;;;;;;4896342;29;20190;-87
2023/06/09 04:30:53;;;;;;;9.10;8.20;;;13.70;99.90;;;;;;4909474;29;20498;-86
2023/06/09 04:33:19;;;;;;;10.23;9.23;;;14.00;99.90;;;;;;4913212;29;20226;-86
2023/06/09 04:35:46;;;;;;;10.10;8.53;;;13.30;99.90;;;;;;4927954;29;20215;-86
2023/06/09 04:38:12;;;;;;;9.20;8.38;;;13.80;99.90;;;;;;4901749;29;20215;-86
2023/06/09 04:40:39;;;;;;;9.20;8.30;;;13.80;99.90;;;;;;4895287;29;20198;-86
2023/06/09 04:43:07;;;;;;;10.73;9.52;;;13.90;99.90;;;;;;4889872;29;20359;-87
2023/06/09 04:45:35;;;;;;;10.23;9.32;;;14.30;99.90;;;;;;4926767;29;20236;-87
2023/06/09 04:48:02;;;;;;;11.45;9.43;;;14.10;99.90;;;;;;4893788;29;20482;-86
2023/06/09 04:50:29;;;;;;;9.52;8.65;;;14.70;99.90;;;;;;4920862;29;20222;-86
2023/06/09 04:52:57;;;;;;;10.27;9.25;;;14.40;99.90;;;;;;4898639;29;20203;-85
2023/06/09 04:55:26;;;;;;;10.73;9.50;;;15.40;99.90;;;;;;4922062;29;20198;-87
2023/06/09 04:57:55;;;;;;;10.25;9.45;;;14.80;99.90;;;;;;4896711;29;20792;-86
2023/06/09 05:00:21;;;;;;;9.65;8.75;;;14.60;99.90;;;;;;4894436;29;20182;-86
2023/06/09 05:02:47;;;;;;;11.07;9.98;;;15.00;99.90;;;;;;4924063;29;20210;-86
2023/06/09 05:05:14;;;;;;;9.60;8.80;;;15.10;99.90;;;;;;4900405;29;20270;-86
2023/06/09 05:07:40;;;;;;;10.75;9.85;;;15.70;99.90;;;;;;4927665;29;20187;-86
2023/06/09 05:10:08;;;;;;;11.18;10.10;;;15.40;99.90;;;;;;4923956;29;20276;-86
2023/06/09 05:12:35;;;;;;;9.40;8.60;;;15.60;99.90;;;;;;4892674;29;20688;-86
2023/06/09 05:15:00;;;;;;;10.55;9.45;;;15.30;99.90;;;;;;4924865;29;20206;-90
2023/06/09 05:23:40;;;;;;;10.45;9.48;;;15.80;99.90;;;;;;4917899;23;20261;-72
2023/06/09 05:26:05;;;;;;;11.70;10.50;;;16.50;99.90;;;;;;4910102;29;20967;-71
2023/06/09 05:28:31;;;;;;;11.80;10.07;;;16.30;99.90;;;;;;4890391;29;20443;-72
2023/06/09 05:30:56;;;;;;;10.53;9.63;;;16.70;99.90;;;;;;4891914;29;20202;-71
2023/06/09 05:33:22;;;;;;;10.93;10.03;;;16.80;99.90;;;;;;4907369;29;20263;-71
2023/06/09 05:35:48;;;;;;;10.70;9.80;;;16.90;99.90;;;;;;4904591;29;20183;-72
2023/06/09 05:38:13;;;;;;;11.10;10.10;;;17.10;99.90;;;;;;4888111;29;20446;-73
2023/06/09 05:40:39;;;;;;;10.73;9.53;;;17.00;99.90;;;;;;4893057;29;20206;-71
2023/06/09 05:43:05;;;;;;;11.40;9.60;;;17.20;99.90;;;;;;4909936;29;20186;-71
2023/06/09 05:45:31;;;;;;;9.93;9.02;;;17.30;99.90;;;;;;4890664;29;20585;-70
2023/06/09 05:47:57;;;;;;;10.87;9.77;;;17.60;99.90;;;;;;4907120;29;20186;-70
2023/06/09 05:50:22;;;;;;;9.80;9.00;;;17.50;99.90;;;;;;4905909;29;20288;-70
2023/06/09 05:52:48;;;;;;;10.13;9.23;;;17.60;99.90;;;;;;4907732;29;20190;-72
2023/06/09 05:55:16;;;;;;;9.90;9.00;;;17.80;99.90;;;;;;4907318;29;20613;-71
2023/06/09 05:57:43;;;;;;;9.50;8.63;;;17.80;99.90;;;;;;4893509;29;20190;-71
2023/06/09 06:00:10;;;;;;;10.40;9.40;;;18.00;99.90;;;;;;4906681;29;20260;-74
2023/06/09 06:02:38;;;;;;;9.40;8.55;;;18.20;99.90;;;;;;4906183;29;20272;-72
2023/06/09 06:05:08;;;;;;;10.35;9.55;;;18.30;99.90;;;;;;4881528;29;20186;-73
2023/06/09 06:07:36;;;;;;;10.70;9.80;;;18.40;99.90;;;;;;4887481;29;20190;-72
2023/06/09 06:10:03;;;;;;;9.57;8.77;;;18.50;99.90;;;;;;4904806;29;20933;-72
2023/06/09 06:12:30;;;;;;;10.15;9.25;;;18.70;99.90;;;;;;4888321;29;20198;-72
2023/06/09 06:14:55;;;;;;;10.55;9.65;;;18.80;99.90;;;;;;4890446;29;20186;-73
2023/06/09 06:17:21;;;;;;;9.90;9.10;;;18.80;99.90;;;;;;4905636;29;20594;-72
2023/06/09 06:19:46;;;;;;;10.23;9.33;;;18.90;99.90;;;;;;4888427;29;20206;-72
2023/06/09 06:22:12;;;;;;;10.60;9.70;;;19.00;99.90;;;;;;4893722;29;20206;-73
2023/06/09 06:24:38;;;;;;;12.00;10.90;;;19.10;99.90;;;;;;4890945;29;20249;-72
2023/06/09 06:27:04;;;;;;;11.67;10.77;;;19.20;99.90;;;;;;4907387;29;20215;-72
2023/06/09 06:29:30;;;;;;;12.90;11.60;;;19.40;99.90;;;;;;4889613;29;20200;-72
2023/06/09 06:31:56;;;;;;;11.70;10.80;;;19.50;99.90;;;;;;4900163;29;20445;-73
2023/06/09 06:34:21;;;;;;;11.70;10.70;;;19.60;99.90;;;;;;4899947;29;20195;-72
2023/06/09 06:36:47;;;;;;;10.83;9.73;;;19.70;99.90;;;;;;4906103;29;20307;-72
2023/06/09 06:39:13;;;;;;;12.27;11.27;;;19.70;99.90;;;;;;4907640;29;20249;-73
2023/06/09 06:41:39;;;;;;;17.60;15.93;;;19.70;99.90;;;;;;4901922;29;20651;-72
2023/06/09 06:44:05;;;;;;;11.18;10.18;;;19.90;99.90;;;;;;4890402;29;20295;-71
2023/06/09 06:46:31;;;;;;;9.68;8.82;;;19.90;99.90;;;;;;4909419;29;20232;-73
2023/06/09 06:48:57;;;;;;;10.40;9.47;;;19.60;99.90;;;;;;4893989;29;20645;-71
2023/06/09 06:51:23;;;;;;;11.17;10.20;;;20.10;99.90;;;;;;4892368;29;20681;-71
2023/06/09 06:53:48;;;;;;;19.17;17.37;;;20.40;99.90;;;;;;4885665;29;20277;-71
2023/06/09 06:56:14;;;;;;;9.73;8.77;;;20.50;99.90;;;;;;4908868;29;20183;-72
2023/06/09 06:58:40;;;;;;;12.80;11.60;;;20.70;99.90;;;;;;4893402;29;20191;-72
2023/06/09 07:01:06;;;;;;;19.03;17.33;;;21.00;99.90;;;;;;4913937;29;20234;-71
2023/06/09 07:03:33;;;;;;;12.07;11.07;;;21.50;99.90;;;;;;4920104;29;20462;-72
2023/06/09 07:05:58;;;;;;;11.10;10.00;;;23.20;98.50;;;;;;4907621;29;20343;-72
2023/06/09 07:08:24;;;;;;;9.50;8.70;;;25.60;92.80;;;;;;4926017;29;20915;-73
2023/06/09 07:10:50;;;;;;;8.80;8.10;;;28.20;85.30;;;;;;4898964;29;20202;-73
2023/06/09 07:13:16;;;;;;;10.27;9.23;;;30.30;76.50;;;;;;4909607;29;20187;-73
2023/06/09 07:15:42;;;;;;;10.60;9.57;;;31.30;67.30;;;;;;4910031;29;20456;-73
2023/06/09 07:18:07;;;;;;;9.47;8.57;;;32.20;66.20;;;;;;4891970;29;20186;-73
2023/06/09 07:20:33;;;;;;;8.77;7.80;;;35.00;58.70;;;;;;4909424;29;20496;-73
2023/06/09 07:22:59;;;;;;;10.00;9.20;;;35.90;53.30;;;;;;4890235;29;20827;-73
2023/06/09 07:25:25;;;;;;;9.47;8.77;;;36.50;50.70;;;;;;4908676;29;20190;-73
2023/06/09 07:27:51;;;;;;;8.40;7.80;;;36.30;48.80;;;;;;4909803;29;20516;-73
2023/06/09 07:30:17;;;;;;;7.77;7.07;;;36.70;49.50;;;;;;4908558;29;21001;-74
2023/06/09 07:32:43;;;;;;;7.50;6.90;;;38.90;46.20;;;;;;4892643;29;20192;-73
2023/06/09 07:35:13;;;;;;;7.10;6.60;;;40.00;41.80;;;;;;4893620;29;20648;-72
2023/06/09 07:37:46;;;;;;;7.27;6.77;;;41.20;40.30;;;;;;4891550;29;20533;-72
2023/06/09 07:40:11;;;;;;;7.53;7.03;;;42.00;38.10;;;;;;4894912;29;20566;-72
2023/06/09 07:42:37;;;;;;;6.87;6.47;;;42.80;36.00;;;;;;4913718;29;20543;-72
2023/06/09 07:45:03;;;;;;;6.13;5.63;;;42.70;34.80;;;;;;4890422;29;20187;-72
2023/06/09 07:47:29;;;;;;;7.43;6.83;;;43.00;34.40;;;;;;4908132;29;20218;-72
2023/06/09 07:49:54;;;;;;;7.20;6.60;;;43.00;33.30;;;;;;4902778;29;20463;-72
2023/06/09 07:52:20;;;;;;;6.30;5.90;;;43.30;33.10;;;;;;4906225;29;20618;-72
2023/06/09 07:54:46;;;;;;;9.07;6.83;;;44.00;32.10;;;;;;4895096;29;20210;-72
2023/06/09 07:57:11;;;;;;;5.73;5.23;;;43.10;31.70;;;;;;4908292;29;20270;-72
2023/06/09 07:59:37;;;;;;;6.70;5.93;;;42.40;32.40;;;;;;4895341;29;20836;-72
2023/06/09 08:02:03;;;;;;;6.40;6.00;;;43.40;32.20;;;;;;4893122;29;20215;-72
2023/06/09 08:04:29;;;;;;;7.60;6.90;;;43.20;31.50;;;;;;4887075;29;20243;-72
2023/06/09 08:06:58;;;;;;;6.57;6.17;;;43.40;31.40;;;;;;4904779;29;20225;-72
2023/06/09 08:09:25;;;;;;;7.10;6.50;;;44.00;30.70;;;;;;4906344;29;20798;-72
2023/06/09 08:11:50;;;;;;;7.50;6.87;;;42.00;31.20;;;;;;4908772;29;20446;-72
2023/06/09 08:14:17;;;;;;;7.60;7.10;;;40.00;33.00;;;;;;4908015;29;20445;-72
2023/06/09 08:16:43;;;;;;;7.43;6.83;;;39.50;35.10;;;;;;4905877;29;20672;-72
2023/06/09 08:19:09;;;;;;;7.03;6.53;;;38.90;35.30;;;;;;4912947;29;20454;-72
2023/06/09 08:21:42;;;;;;;7.03;6.53;;;38.60;36.10;;;;;;4906231;29;20541;-72
2023/06/09 08:24:08;;;;;;;6.17;5.77;;;40.00;35.20;;;;;;4909703;29;20190;-72
2023/06/09 08:26:34;;;;;;;6.90;6.37;;;40.40;35.20;;;;;;4910287;29;20477;-73
2023/06/09 08:29:03;;;;;;;6.07;5.57;;;41.50;33.70;;;;;;4891910;29;20443;-73
2023/06/09 08:31:29;;;;;;;6.10;5.60;;;41.30;33.40;;;;;;4904684;29;20306;-74
2023/06/09 08:33:55;;;;;;;6.10;5.63;;;41.90;32.90;;;;;;4910850;29;20817;-74
2023/06/09 08:36:21;;;;;;;6.17;5.77;;;41.60;33.10;;;;;;4893639;29;20442;-74
2023/06/09 08:38:47;;;;;;;5.80;5.40;;;42.00;32.70;;;;;;4910243;29;20190;-74
2023/06/09 08:41:15;;;;;;;5.80;5.40;;;41.40;32.80;;;;;;4910326;29;20513;-73
2023/06/09 08:43:41;;;;;;;6.97;6.47;;;38.70;35.30;;;;;;4902742;29;20194;-73
2023/06/09 08:46:11;;;;;;;6.83;6.23;;;38.80;36.00;;;;;;4910629;29;20584;-73
2023/06/09 08:48:50;;;;;;;5.80;5.40;;;39.40;34.60;;;;;;4890672;29;20522;-73
2023/06/09 08:51:16;;;;;;;6.20;5.80;;;39.80;34.70;;;;;;4910060;29;20465;-73
2023/06/09 09:58:35;;;;;;;3.80;3.60;;;40.50;30.80;;;;;;5358609;23;20604;-73
2023/06/09 10:01:04;;;;;;;4.30;4.00;;;40.50;30.40;;;;;;4921545;29;20990;-72
2023/06/09 10:03:32;;;;;;;4.33;4.10;;;39.70;31.50;;;;;;4916989;29;20443;-73
2023/06/09 10:06:02;;;;;;;5.10;4.20;;;39.80;31.40;;;;;;4919829;29;20480;-70
2023/06/09 10:08:29;;;;;;;4.80;3.73;;;40.10;31.00;;;;;;4920213;29;20449;-72
2023/06/09 10:11:02;;;;;;;4.20;3.90;;;40.10;30.90;;;;;;4935672;23;20512;-68
2023/06/09 10:13:29;;;;;;;4.30;4.00;;;40.10;31.10;;;;;;4918629;29;20515;-69
2023/06/09 10:15:58;;;;;;;4.10;3.80;;;39.90;30.80;;;;;;4920437;29;20449;-68
2023/06/09 10:18:24;;;;;;;4.23;3.90;;;40.00;31.00;;;;;;4900871;29;20446;-69
2023/06/09 10:20:52;;;;;;;3.60;3.40;;;40.20;30.20;;;;;;4914750;29;20484;-69
2023/06/09 10:23:18;;;;;;;3.60;3.40;;;39.60;31.00;;;;;;4907986;29;20482;-69
2023/06/09 10:25:48;;;;;;;4.20;3.90;;;39.30;31.20;;;;;;4911845;29;20514;-68
2023/06/09 10:28:16;;;;;;;3.10;2.90;;;38.80;30.80;;;;;;4906570;29;20486;-67
2023/06/09 10:30:42;;;;;;;4.03;3.73;;;37.80;32.70;;;;;;4906868;29;20473;-67
2023/06/09 10:33:28;;;;;;;3.80;3.50;;;37.60;32.70;;;;;;4904435;29;21098;-67
2023/06/09 10:35:59;;;;;;;3.27;3.07;;;37.40;33.20;;;;;;4904042;29;21036;-67
2023/06/09 10:38:34;;;;;;;3.30;3.10;;;37.50;32.40;;;;;;4890049;29;20501;-66
2023/06/09 10:41:11;;;;;;;3.80;3.50;;;36.60;33.20;;;;;;4905648;29;20541;-66
2023/06/09 10:43:56;;;;;;;3.87;3.57;;;36.60;34.00;;;;;;4907501;29;20510;-66
2023/06/09 10:46:43;;;;;;;3.43;3.23;;;36.20;33.90;;;;;;4906216;29;20560;-66
2023/06/09 10:49:35;;;;;;;4.17;3.87;;;36.70;33.40;;;;;;4911218;29;20991;-66
2023/06/09 10:52:01;;;;;;;3.60;3.40;;;37.70;32.70;;;;;;4908505;29;20450;-66
2023/06/09 10:54:29;;;;;;;3.67;3.47;;;37.40;31.70;;;;;;4906518;29;20481;-67
2023/06/09 10:57:00;;;;;;;3.07;2.87;;;37.10;32.40;;;;;;4909613;29;20492;-67
2023/06/09 10:59:26;;;;;;;3.60;3.30;;;37.00;32.70;;;;;;4909050;29;20454;-67
2023/06/09 11:02:03;;;;;;;3.43;3.23;;;37.20;32.50;;;;;;4904832;29;20450;-68
2023/06/09 11:04:43;;;;;;;3.80;3.50;;;37.10;32.60;;;;;;4903306;29;20200;-68
2023/06/09 11:07:29;;;;;;;3.73;3.43;;;37.60;32.00;;;;;;4904554;29;20565;-67
2023/06/09 11:09:57;;;;;;;3.27;2.97;;;36.10;32.40;;;;;;4909403;29;20564;-68
2023/06/09 11:12:42;;;;;;;3.70;3.40;;;35.50;33.50;;;;;;4905255;29;20453;-68
2023/06/09 11:15:12;;;;;;;3.00;2.80;;;36.20;33.60;;;;;;4908035;29;20821;-68
2023/06/09 11:17:41;;;;;;;3.07;2.87;;;37.00;32.40;;;;;;4906827;29;20474;-67
2023/06/09 11:20:10;;;;;;;2.80;2.60;;;37.50;32.10;;;;;;4905784;29;20536;-68
2023/06/09 11:22:41;;;;;;;3.37;3.07;;;38.10;31.30;;;;;;4906317;29;20446;-67
2023/06/09 11:25:08;;;;;;;2.90;2.70;;;37.70;30.90;;;;;;4908344;29;20442;-67
2023/06/09 11:27:34;;;;;;;3.03;2.80;;;38.10;30.70;;;;;;4903982;29;20520;-67
2023/06/09 11:30:19;;;;;;;10.97;3.30;;;38.20;31.10;;;;;;4906194;29;20494;-67
2023/06/09 11:32:52;;;;;;;5.80;4.40;;;38.10;31.10;;;;;;4904640;29;20461;-67
2023/06/09 11:35:30;;;;;;;3.20;3.00;;;37.30;32.10;;;;;;4903760;29;20525;-67
2023/06/09 11:37:57;;;;;;;3.20;3.00;;;36.30;33.50;;;;;;4905092;29;20450;-67
2023/06/09 11:40:23;;;;;;;3.30;3.00;;;35.60;34.20;;;;;;4904307;29;20525;-68
2023/06/09 11:42:50;;;;;;;3.53;3.33;;;35.60;33.90;;;;;;4905199;29;20450;-67
2023/06/09 11:45:16;;;;;;;3.77;3.47;;;34.70;35.20;;;;;;4905422;29;20529;-67
2023/06/09 11:47:43;;;;;;;3.73;3.40;;;33.70;37.00;;;;;;4907370;29;20493;-67
2023/06/09 11:50:14;;;;;;;3.70;3.50;;;32.90;38.10;;;;;;4902537;29;20505;-68
2023/06/09 11:52:45;;;;;;;3.40;3.20;;;32.20;39.60;;;;;;4907997;29;21077;-67
2023/06/09 11:55:15;;;;;;;3.47;3.27;;;32.20;40.60;;;;;;4886609;29;20548;-67
2023/06/09 11:57:41;;;;;;;3.60;3.30;;;31.70;40.50;;;;;;4906606;29;20842;-67
2023/06/09 12:00:12;;;;;;;3.87;3.57;;;31.40;41.20;;;;;;4907257;29;21015;-67
2023/06/09 12:02:47;;;;;;;3.57;3.37;;;31.10;41.10;;;;;;4903135;29;20448;-68
2023/06/09 12:05:13;;;;;;;3.70;3.50;;;30.70;42.60;;;;;;4901022;29;20454;-67
2023/06/09 12:07:47;;;;;;;3.30;3.00;;;29.80;43.90;;;;;;4901728;29;20503;-67
2023/06/09 12:10:14;;;;;;;3.73;3.43;;;29.80;44.00;;;;;;4901666;29;20477;-67
2023/06/09 12:12:49;;;;;;;3.80;3.60;;;29.80;45.10;;;;;;4890246;29;20561;-67
2023/06/09 12:15:16;;;;;;;4.57;3.87;;;29.40;45.00;;;;;;4904074;29;20468;-66
2023/06/09 12:17:43;;;;;;;3.93;3.63;;;29.10;45.00;;;;;;4905234;29;20524;-67
2023/06/09 12:20:19;;;;;;;3.70;3.50;;;29.00;45.90;;;;;;4902225;29;21246;-66
2023/06/09 12:22:44;;;;;;;3.27;3.07;;;28.80;46.50;;;;;;4904295;29;20443;-67
2023/06/09 12:25:26;;;;;;;3.90;3.60;;;28.80;45.70;;;;;;4907533;29;20451;-67
2023/06/09 12:27:53;;;;;;;6.27;3.87;;;28.70;46.10;;;;;;4886786;29;20205;-67
2023/06/09 12:30:38;;;;;;;4.10;3.80;;;28.90;46.20;;;;;;4907274;29;20994;-67
2023/06/09 12:33:11;;;;;;;3.67;3.47;;;29.20;46.40;;;;;;4900818;29;20457;-67
2023/06/09 12:35:37;;;;;;;4.07;3.77;;;29.10;47.10;;;;;;4904360;29;20503;-67
2023/06/09 12:38:17;;;;;;;4.00;3.70;;;29.00;47.70;;;;;;4906801;29;20453;-67
2023/06/09 12:40:58;;;;;;;3.97;3.60;;;28.90;47.80;;;;;;4903684;29;20466;-67
2023/06/09 12:43:25;;;;;;;8.90;8.10;;;28.70;48.20;;;;;;4889098;29;21170;-67
2023/06/09 12:45:56;;;;;;;3.90;3.70;;;28.50;48.20;;;;;;4885266;29;20467;-67
2023/06/09 12:48:22;;;;;;;3.70;3.50;;;28.30;47.90;;;;;;4907003;29;20839;-67
2023/06/09 12:50:48;;;;;;;4.20;3.90;;;28.10;48.60;;;;;;4905145;29;20472;-67
2023/06/09 12:53:14;;;;;;;4.20;3.87;;;28.00;49.40;;;;;;4904758;29;20442;-67
2023/06/09 12:55:41;;;;;;;3.80;3.50;;;28.10;49.00;;;;;;4908648;29;20195;-68
2023/06/09 12:58:09;;;;;;;4.00;3.70;;;28.30;49.00;;;;;;4897248;29;20444;-67
2023/06/09 13:00:36;;;;;;;3.80;3.60;;;28.40;49.10;;;;;;4902507;29;20945;-68
2023/06/09 13:03:03;;;;;;;3.60;3.33;;;28.40;49.20;;;;;;4905967;29;20479;-67
2023/06/09 13:05:30;;;;;;;4.23;3.93;;;28.60;49.20;;;;;;4900913;29;20452;-67
2023/06/09 13:07:57;;;;;;;3.80;3.60;;;28.30;49.10;;;;;;4901169;29;20879;-67
2023/06/09 13:10:23;;;;;;;4.00;3.70;;;28.20;49.60;;;;;;4901606;29;20471;-67
2023/06/09 13:12:50;;;;;;;5.33;4.83;;;28.00;49.70;;;;;;4904516;29;21060;-67
2023/06/09 13:15:17;;;;;;;3.80;3.50;;;28.00;49.60;;;;;;4899931;29;20186;-67
2023/06/09 13:17:43;;;;;;;4.53;4.23;;;28.00;49.60;;;;;;4903834;29;20617;-67
2023/06/09 13:20:09;;;;;;;3.90;3.70;;;27.90;49.80;;;;;;4881974;29;20470;-67
2023/06/09 13:22:34;;;;;;;3.80;3.50;;;27.80;49.00;;;;;;4902870;29;20194;-67
2023/06/09 13:25:00;;;;;;;4.63;4.20;;;27.80;49.50;;;;;;4901373;29;20443;-67
2023/06/09 13:27:25;;;;;;;3.97;3.70;;;27.80;48.70;;;;;;4900940;29;20700;-68
2023/06/09 13:29:51;;;;;;;4.40;4.10;;;27.80;48.90;;;;;;4886780;29;20528;-68
2023/06/09 13:32:17;;;;;;;4.33;3.93;;;27.80;49.40;;;;;;4899532;29;20809;-68
2023/06/09 13:34:42;;;;;;;4.10;3.80;;;27.80;47.30;;;;;;4898678;29;20352;-68
2023/06/09 13:37:08;;;;;;;4.27;3.97;;;28.00;48.20;;;;;;4906331;29;20218;-68
2023/06/09 13:39:33;;;;;;;4.10;3.80;;;28.20;47.40;;;;;;4908295;29;20198;-67
2023/06/09 13:41:59;;;;;;;5.47;4.20;;;28.20;47.80;;;;;;4900346;29;20218;-68
2023/06/09 13:44:25;;;;;;;4.90;4.50;;;28.30;47.80;;;;;;4885327;29;20636;-68
2023/06/09 13:46:50;;;;;;;3.90;3.70;;;28.40;47.90;;;;;;4900223;29;20555;-68
2023/06/09 13:49:16;;;;;;;4.03;3.70;;;28.60;48.50;;;;;;4896291;29;20291;-68
2023/06/09 13:51:42;;;;;;;4.30;4.00;;;28.60;48.20;;;;;;4905890;29;20209;-66
2023/06/09 13:54:07;;;;;;;4.47;4.17;;;28.60;47.90;;;;;;4903926;29;20200;-66
2023/06/09 13:56:33;;;;;;;8.00;3.80;;;28.30;47.10;;;;;;4901042;29;20296;-66
2023/06/09 13:58:59;;;;;;;3.97;3.70;;;28.30;47.80;;;;;;4897690;29;20226;-66
2023/06/09 14:01:25;;;;;;;4.53;4.13;;;28.20;47.60;;;;;;4900692;29;20564;-66
2023/06/09 14:03:50;;;;;;;4.40;4.10;;;28.20;47.20;;;;;;4905153;29;20183;-66
2023/06/09 14:06:17;;;;;;;4.20;3.90;;;28.10;47.50;;;;;;4904844;29;20854;-67
2023/06/09 14:08:42;;;;;;;4.10;3.70;;;27.90;47.80;;;;;;4902630;29;20662;-66
2023/06/09 14:11:08;;;;;;;3.80;3.60;;;28.20;47.40;;;;;;4902341;29;20475;-66
2023/06/09 14:13:34;;;;;;;3.60;3.40;;;28.00;47.20;;;;;;4904367;29;20288;-66
2023/06/09 14:15:59;;;;;;;3.83;3.60;;;28.10;47.80;;;;;;4902942;29;20575;-66
2023/06/09 14:18:25;;;;;;;4.50;4.20;;;27.90;48.60;;;;;;4882804;29;20203;-66
2023/06/09 14:20:50;;;;;;;4.07;3.77;;;27.60;48.50;;;;;;4904245;29;20358;-66
2023/06/09 14:23:16;;;;;;;4.23;3.90;;;27.40;49.50;;;;;;4900714;29;20198;-66
2023/06/09 14:25:42;;;;;;;3.60;3.40;;;27.30;49.20;;;;;;4900816;29;20716;-66
2023/06/09 14:28:08;;;;;;;3.87;3.63;;;27.30;47.90;;;;;;4887417;29;20194;-66
2023/06/09 14:30:34;;;;;;;3.67;3.47;;;27.30;47.30;;;;;;4901470;29;20277;-66
2023/06/09 14:32:59;;;;;;;3.67;3.37;;;27.30;46.80;;;;;;4900037;29;20810;-66
2023/06/09 14:35:27;;;;;;;4.13;3.83;;;27.30;47.20;;;;;;4903278;29;20189;-66
2023/06/09 14:38:00;;;;;;;4.00;3.70;;;27.30;48.00;;;;;;4902368;29;20188;-66